Terminal Aerodrome Forecast
Issued by NWS Jackson, KY

Home | Current Version | Previous Version | Text Only | Print | Product List | Glossary On
Versions: 1 2 3 4 5 6 7 8 9 10 11 12 13 14
172
FTUS43 KJKL 232340
TAFLOZ
TAF
KLOZ 232340Z 2400/2424 18006G15KT 5SM -RA VCTS OVC040CB
     FM240200 22010KT 4SM -SHRA VCTS OVC015CB
     FM240600 26007KT 3SM BR BKN010 OVC025
     FM241000 29005KT 1SM BR OVC010
     FM241400 29006KT P6SM FEW050=

USA.gov is the U.S. government's official web portal to all federal, state and local government web resources and services.